sensor_id;sensor_type;location;lat;lon;timestamp;pressure;altitude;pressure_sealevel;temperature;humidity
75767;BME280;64378;55.596;13.014;2023-03-23T00:00:51;100059.94;;;21.36;43.21
75767;BME280;64378;55.596;13.014;2023-03-23T00:03:16;100059.94;;;21.36;43.37
75767;BME280;64378;55.596;13.014;2023-03-23T00:05:42;100050.91;;;21.35;43.22
75767;BME280;64378;55.596;13.014;2023-03-23T00:08:15;100044.56;;;21.35;43.13
75767;BME280;64378;55.596;13.014;2023-03-23T00:10:40;100038.28;;;21.34;42.94
75767;BME280;64378;55.596;13.014;2023-03-23T00:13:06;100050.91;;;21.35;43.18
75767;BME280;64378;55.596;13.014;2023-03-23T00:15:31;100054.44;;;21.36;43.06
75767;BME280;64378;55.596;13.014;2023-03-23T00:17:59;100047.63;;;21.33;43.16
75767;BME280;64378;55.596;13.014;2023-03-23T00:20:31;100048.44;;;21.34;43.31
75767;BME280;64378;55.596;13.014;2023-03-23T00:23:05;100042.94;;;21.34;43.23
75767;BME280;64378;55.596;13.014;2023-03-23T00:25:32;100044.88;;;21.33;43.51
75767;BME280;64378;55.596;13.014;2023-03-23T00:27:57;100037.75;;;21.32;43.28
75767;BME280;64378;55.596;13.014;2023-03-23T00:30:22;100025.13;;;21.31;43.17
75767;BME280;64378;55.596;13.014;2023-03-23T00:32:48;100033.06;;;21.33;43.13
75767;BME280;64378;55.596;13.014;2023-03-23T00:35:14;100024.84;;;21.33;43.33
75767;BME280;64378;55.596;13.014;2023-03-23T00:37:39;100025.66;;;21.33;43.13
75767;BME280;64378;55.596;13.014;2023-03-23T00:40:05;100026.25;;;21.30;43.21
75767;BME280;64378;55.596;13.014;2023-03-23T00:42:34;100022.91;;;21.33;43.15
75767;BME280;64378;55.596;13.014;2023-03-23T00:45:03;100018.53;;;21.32;43.15
75767;BME280;64378;55.596;13.014;2023-03-23T00:47:37;100001.53;;;21.30;43.12
75767;BME280;64378;55.596;13.014;2023-03-23T00:50:04;100003.19;;;21.31;43.01
75767;BME280;64378;55.596;13.014;2023-03-23T00:52:30;100005.94;;;21.31;43.00
75767;BME280;64378;55.596;13.014;2023-03-23T00:54:55;99994.94;;;21.31;43.05
75767;BME280;64378;55.596;13.014;2023-03-23T00:57:21;99985.88;;;21.31;42.84
75767;BME280;64378;55.596;13.014;2023-03-23T00:59:50;99983.13;;;21.31;42.97
75767;BME280;64378;55.596;13.014;2023-03-23T01:02:16;99982.34;;;21.30;42.81
75767;BME280;64378;55.596;13.014;2023-03-23T01:04:42;99982.91;;;21.27;42.86
75767;BME280;64378;55.596;13.014;2023-03-23T01:07:10;99985.09;;;21.30;42.87
75767;BME280;64378;55.596;13.014;2023-03-23T01:09:38;99985.09;;;21.30;42.75
75767;BME280;64378;55.596;13.014;2023-03-23T01:12:05;99986.19;;;21.29;42.70
75767;BME280;64378;55.596;13.014;2023-03-23T01:14:30;99980.41;;;21.31;42.75
75767;BME280;64378;55.596;13.014;2023-03-23T01:16:56;99973.28;;;21.30;42.75
75767;BME280;64378;55.596;13.014;2023-03-23T01:19:22;99981.50;;;21.30;42.63
75767;BME280;64378;55.596;13.014;2023-03-23T01:21:47;99989.72;;;21.30;42.47
75767;BME280;64378;55.596;13.014;2023-03-23T01:24:13;99974.09;;;21.30;42.49
75767;BME280;64378;55.596;13.014;2023-03-23T01:26:38;99980.69;;;21.29;42.52
75767;BME280;64378;55.596;13.014;2023-03-23T01:29:03;99982.97;;;21.22;42.54
75767;BME280;64378;55.596;13.014;2023-03-23T01:31:29;99988.09;;;21.29;42.46
75767;BME280;64378;55.596;13.014;2023-03-23T01:33:55;99983.44;;;21.29;42.35
75767;BME280;64378;55.596;13.014;2023-03-23T01:36:24;99976.31;;;21.28;42.49
75767;BME280;64378;55.596;13.014;2023-03-23T01:38:51;99976.31;;;21.28;42.62
75767;BME280;64378;55.596;13.014;2023-03-23T01:41:18;99969.19;;;21.27;42.63
75767;BME280;64378;55.596;13.014;2023-03-23T01:46:34;99974.69;;;21.27;42.58
75767;BME280;64378;55.596;13.014;2023-03-23T01:49:13;99978.25;;;21.28;42.59
75767;BME280;64378;55.596;13.014;2023-03-23T01:51:45;99977.44;;;21.27;42.79
75767;BME280;64378;55.596;13.014;2023-03-23T01:54:14;99960.97;;;21.27;42.60
75767;BME280;64378;55.596;13.014;2023-03-23T01:56:51;99954.66;;;21.27;42.72
75767;BME280;64378;55.596;13.014;2023-03-23T01:59:17;99953.84;;;21.26;42.85
75767;BME280;64378;55.596;13.014;2023-03-23T02:01:44;99944.81;;;21.26;42.71
75767;BME280;64378;55.596;13.014;2023-03-23T02:04:15;99947.56;;;21.26;42.92
75767;BME280;64378;55.596;13.014;2023-03-23T02:06:42;99941.22;;;21.25;42.81
75767;BME280;64378;55.596;13.014;2023-03-23T02:09:11;99940.44;;;21.25;42.69
75767;BME280;64378;55.596;13.014;2023-03-23T02:11:39;99941.22;;;21.25;42.78
75767;BME280;64378;55.596;13.014;2023-03-23T02:14:04;99938.47;;;21.25;42.75
75767;BME280;64378;55.596;13.014;2023-03-23T02:16:37;99926.72;;;21.25;42.70
75767;BME280;64378;55.596;13.014;2023-03-23T02:37:01;99909.72;;;21.23;42.68
75767;BME280;64378;55.596;13.014;2023-03-23T02:39:24;99900.66;;;21.22;42.86
75767;BME280;64378;55.596;13.014;2023-03-23T02:41:55;99910.00;;;21.21;42.86
75767;BME280;64378;55.596;13.014;2023-03-23T02:44:23;99895.16;;;21.22;42.63
75767;BME280;64378;55.596;13.014;2023-03-23T02:46:53;99892.41;;;21.22;42.64
75767;BME280;64378;55.596;13.014;2023-03-23T02:49:20;99886.94;;;21.22;42.75
75767;BME280;64378;55.596;13.014;2023-03-23T02:51:48;99893.53;;;21.21;42.87
75767;BME280;64378;55.596;13.014;2023-03-23T02:54:15;99887.75;;;21.23;42.69
75767;BME280;64378;55.596;13.014;2023-03-23T02:56:42;99889.66;;;21.22;42.66
75767;BME280;64378;55.596;13.014;2023-03-23T02:59:08;99879.53;;;21.23;42.78
75767;BME280;64378;55.596;13.014;2023-03-23T03:04:04;99883.91;;;21.24;42.90
75767;BME280;64378;55.596;13.014;2023-03-23T03:06:42;99880.34;;;21.23;42.71
75767;BME280;64378;55.596;13.014;2023-03-23T03:12:08;99877.59;;;21.23;42.90
75767;BME280;64378;55.596;13.014;2023-03-23T03:14:49;99869.34;;;21.23;42.85
75767;BME280;64378;55.596;13.014;2023-03-23T03:17:24;99871.31;;;21.23;42.73
75767;BME280;64378;55.596;13.014;2023-03-23T03:19:55;99872.94;;;21.24;42.59
75767;BME280;64378;55.596;13.014;2023-03-23T03:22:23;99863.88;;;21.23;42.89
75767;BME280;64378;55.596;13.014;2023-03-23T03:24:55;99862.75;;;21.24;43.03
75767;BME280;64378;55.596;13.014;2023-03-23T03:27:23;99859.22;;;21.24;42.74
75767;BME280;64378;55.596;13.014;2023-03-23T03:29:53;99864.72;;;21.24;42.76
75767;BME280;64378;55.596;13.014;2023-03-23T03:32:22;99854.53;;;21.24;42.76
75767;BME280;64378;55.596;13.014;2023-03-23T03:34:50;99852.91;;;21.23;42.78
75767;BME280;64378;55.596;13.014;2023-03-23T03:37:16;99852.91;;;21.23;42.78
75767;BME280;64378;55.596;13.014;2023-03-23T03:39:41;99858.38;;;21.23;42.79
75767;BME280;64378;55.596;13.014;2023-03-23T03:42:06;99856.75;;;21.22;42.64
75767;BME280;64378;55.596;13.014;2023-03-23T03:44:33;99857.59;;;21.23;42.53
75767;BME280;64378;55.596;13.014;2023-03-23T03:46:58;99852.09;;;21.23;42.58
75767;BME280;64378;55.596;13.014;2023-03-23T03:49:23;99845.78;;;21.22;42.49
75767;BME280;64378;55.596;13.014;2023-03-23T03:51:50;99841.13;;;21.23;42.62
75767;BME280;64378;55.596;13.014;2023-03-23T03:54:16;99834.00;;;21.22;42.61
75767;BME280;64378;55.596;13.014;2023-03-23T03:56:41;99838.66;;;21.21;42.46
75767;BME280;64378;55.596;13.014;2023-03-23T03:59:08;99839.50;;;21.22;42.43
75767;BME280;64378;55.596;13.014;2023-03-23T04:01:37;99830.41;;;21.21;42.26
75767;BME280;64378;55.596;13.014;2023-03-23T04:04:04;99835.91;;;21.21;42.41
75767;BME280;64378;55.596;13.014;2023-03-23T04:06:32;99840.59;;;21.21;42.28
75767;BME280;64378;55.596;13.014;2023-03-23T04:08:58;99828.50;;;21.22;42.33
75767;BME280;64378;55.596;13.014;2023-03-23T04:11:25;99829.31;;;21.22;42.33
75767;BME280;64378;55.596;13.014;2023-03-23T04:13:51;99821.09;;;21.22;42.17
75767;BME280;64378;55.596;13.014;2023-03-23T04:16:17;99819.44;;;21.21;42.03
75767;BME280;64378;55.596;13.014;2023-03-23T04:18:43;99819.97;;;21.23;42.24
75767;BME280;64378;55.596;13.014;2023-03-23T04:21:09;99817.53;;;21.22;42.11
75767;BME280;64378;55.596;13.014;2023-03-23T04:23:35;99828.50;;;21.22;42.11
75767;BME280;64378;55.596;13.014;2023-03-23T04:26:01;99831.25;;;21.22;42.33
75767;BME280;64378;55.596;13.014;2023-03-23T04:28:28;99834.81;;;21.22;42.22
75767;BME280;64378;55.596;13.014;2023-03-23T04:30:55;99827.69;;;21.21;42.17
75767;BME280;64378;55.596;13.014;2023-03-23T04:33:22;99817.81;;;21.20;42.24
75767;BME280;64378;55.596;13.014;2023-03-23T04:35:51;99820.56;;;21.20;42.13
75767;BME280;64378;55.596;13.014;2023-03-23T04:38:18;99814.28;;;21.20;41.83
75767;BME280;64378;55.596;13.014;2023-03-23T04:40:47;99810.16;;;21.17;41.96
75767;BME280;64378;55.596;13.014;2023-03-23T04:43:17;99812.31;;;21.20;42.08
75767;BME280;64378;55.596;13.014;2023-03-23T04:45:47;99804.94;;;21.21;42.10
75767;BME280;64378;55.596;13.014;2023-03-23T04:48:17;99800.25;;;21.21;42.03
75767;BME280;64378;55.596;13.014;2023-03-23T04:50:43;99787.63;;;21.20;42.16
75767;BME280;64378;55.596;13.014;2023-03-23T04:53:08;99796.69;;;21.21;41.98
75767;BME280;64378;55.596;13.014;2023-03-23T04:55:35;99796.69;;;21.21;42.01
75767;BME280;64378;55.596;13.014;2023-03-23T04:58:05;99790.09;;;21.22;41.96
75767;BME280;64378;55.596;13.014;2023-03-23T05:00:33;99794.75;;;21.21;41.93
75767;BME280;64378;55.596;13.014;2023-03-23T05:02:58;99797.81;;;21.20;41.90
75767;BME280;64378;55.596;13.014;2023-03-23T05:05:24;99804.94;;;21.21;41.94
75767;BME280;64378;55.596;13.014;2023-03-23T05:07:50;99800.25;;;21.21;41.99
75767;BME280;64378;55.596;13.014;2023-03-23T05:10:16;99812.31;;;21.20;41.80
75767;BME280;64378;55.596;13.014;2023-03-23T05:12:42;99798.59;;;21.20;41.78
75767;BME280;64378;55.596;13.014;2023-03-23T05:15:10;99803.28;;;21.20;41.89
75767;BME280;64378;55.596;13.014;2023-03-23T05:17:36;99810.69;;;21.19;41.99
75767;BME280;64378;55.596;13.014;2023-03-23T05:20:04;99810.69;;;21.19;41.74
75767;BME280;64378;55.596;13.014;2023-03-23T05:22:32;99811.81;;;21.18;41.89
75767;BME280;64378;55.596;13.014;2023-03-23T05:24:59;99809.06;;;21.18;42.00
75767;BME280;64378;55.596;13.014;2023-03-23T05:27:24;99794.53;;;21.18;41.91
75767;BME280;64378;55.596;13.014;2023-03-23T05:29:53;99795.66;;;21.17;41.76
75767;BME280;64378;55.596;13.014;2023-03-23T05:32:18;99811.00;;;21.18;41.88
75767;BME280;64378;55.596;13.014;2023-03-23T05:34:46;99793.69;;;21.17;42.09
75767;BME280;64378;55.596;13.014;2023-03-23T05:37:11;99792.91;;;21.17;41.95
75767;BME280;64378;55.596;13.014;2023-03-23T05:39:37;99789.31;;;21.16;41.90
75767;BME280;64378;55.596;13.014;2023-03-23T05:42:03;99805.78;;;21.16;41.87
75767;BME280;64378;55.596;13.014;2023-03-23T05:44:29;99789.63;;;21.15;41.91
75767;BME280;64378;55.596;13.014;2023-03-23T05:46:55;99791.28;;;21.16;42.03
75767;BME280;64378;55.596;13.014;2023-03-23T05:49:21;99784.94;;;21.15;42.10
75767;BME280;64378;55.596;13.014;2023-03-23T05:51:47;99784.94;;;21.15;42.13
75767;BME280;64378;55.596;13.014;2023-03-23T05:54:13;99785.78;;;21.16;42.03
75767;BME280;64378;55.596;13.014;2023-03-23T05:56:40;99780.28;;;21.16;41.94
75767;BME280;64378;55.596;13.014;2023-03-23T05:59:06;99783.03;;;21.16;42.04
75767;BME280;64378;55.596;13.014;2023-03-23T06:01:31;99780.28;;;21.16;42.05
75767;BME280;64378;55.596;13.014;2023-03-23T06:03:57;99784.16;;;21.15;41.98
75767;BME280;64378;55.596;13.014;2023-03-23T06:06:28;99781.09;;;21.16;42.11
75767;BME280;64378;55.596;13.014;2023-03-23T06:08:58;99777.56;;;21.16;42.11
75767;BME280;64378;55.596;13.014;2023-03-23T06:11:24;99788.84;;;21.14;42.05
75767;BME280;64378;55.596;13.014;2023-03-23T06:13:51;99785.78;;;21.16;42.16
75767;BME280;64378;55.596;13.014;2023-03-23T06:16:18;99786.59;;;21.16;42.12
75767;BME280;64378;55.596;13.014;2023-03-23T06:18:44;99790.16;;;21.17;42.09
75767;BME280;64378;55.596;13.014;2023-03-23T06:21:10;99790.44;;;21.15;42.04
75767;BME280;64378;55.596;13.014;2023-03-23T06:23:36;99787.41;;;21.17;42.09
75767;BME280;64378;55.596;13.014;2023-03-23T06:26:05;99796.44;;;21.17;42.14
75767;BME280;64378;55.596;13.014;2023-03-23T06:28:30;99790.44;;;21.15;41.85
75767;BME280;64378;55.596;13.014;2023-03-23T06:30:59;99792.91;;;21.17;42.06
75767;BME280;64378;55.596;13.014;2023-03-23T06:33:25;99784.94;;;21.15;42.15
75767;BME280;64378;55.596;13.014;2023-03-23T06:35:50;99788.22;;;21.17;42.09
75767;BME280;64378;55.596;13.014;2023-03-23T06:38:16;99787.09;;;21.18;42.40
75767;BME280;64378;55.596;13.014;2023-03-23T06:40:42;99782.72;;;21.17;42.19
75767;BME280;64378;55.596;13.014;2023-03-23T06:43:11;99776.66;;;21.20;42.18
75767;BME280;64378;55.596;13.014;2023-03-23T06:45:36;99758.28;;;21.21;42.27
75767;BME280;64378;55.596;13.014;2023-03-23T06:48:02;99738.50;;;21.24;41.92
75767;BME280;64378;55.596;13.014;2023-03-23T06:50:27;99710.22;;;21.23;41.87
75767;BME280;64378;55.596;13.014;2023-03-23T06:52:53;99717.34;;;21.24;41.60
75767;BME280;64378;55.596;13.014;2023-03-23T06:55:18;99730.28;;;21.24;41.50
75767;BME280;64378;55.596;13.014;2023-03-23T06:57:44;99736.56;;;21.24;41.31
75767;BME280;64378;55.596;13.014;2023-03-23T07:00:11;99736.56;;;21.24;41.24
75767;BME280;64378;55.596;13.014;2023-03-23T07:02:39;99733.81;;;21.24;41.34
75767;BME280;64378;55.596;13.014;2023-03-23T07:05:06;99726.41;;;21.25;41.37
75767;BME280;64378;55.596;13.014;2023-03-23T07:07:32;99732.69;;;21.25;41.48
75767;BME280;64378;55.596;13.014;2023-03-23T07:09:57;99726.41;;;21.25;41.46
75767;BME280;64378;55.596;13.014;2023-03-23T07:12:23;99731.06;;;21.24;41.64
75767;BME280;64378;55.596;13.014;2023-03-23T07:14:48;99726.41;;;21.25;41.53
75767;BME280;64378;55.596;13.014;2023-03-23T07:17:14;99733.81;;;21.24;41.62
75767;BME280;64378;55.596;13.014;2023-03-23T07:19:39;99754.44;;;21.22;42.01
75767;BME280;64378;55.596;13.014;2023-03-23T07:22:07;99751.06;;;21.06;42.25
75767;BME280;64378;55.596;13.014;2023-03-23T07:24:33;99754.50;;;20.93;42.73
75767;BME280;64378;55.596;13.014;2023-03-23T07:27:00;99744.78;;;20.82;43.00
75767;BME280;64378;55.596;13.014;2023-03-23T07:29:25;99743.38;;;20.85;42.83
75767;BME280;64378;55.596;13.014;2023-03-23T07:31:52;99742.78;;;20.88;42.90
75767;BME280;64378;55.596;13.014;2023-03-23T07:34:17;99740.06;;;20.88;42.81
75767;BME280;64378;55.596;13.014;2023-03-23T07:36:44;99748.00;;;20.89;42.96
75767;BME280;64378;55.596;13.014;2023-03-23T07:39:09;99760.09;;;20.88;42.74
75767;BME280;64378;55.596;13.014;2023-03-23T07:41:35;99763.94;;;20.87;42.60
75767;BME280;64378;55.596;13.014;2023-03-23T07:44:00;99769.41;;;20.87;42.67
75767;BME280;64378;55.596;13.014;2023-03-23T07:46:26;99772.44;;;20.86;42.75
75767;BME280;64378;55.596;13.014;2023-03-23T07:48:51;99775.44;;;20.89;42.71
75767;BME280;64378;55.596;13.014;2023-03-23T07:51:17;99774.28;;;20.90;42.61
75767;BME280;64378;55.596;13.014;2023-03-23T07:53:43;99769.63;;;20.91;42.80
75767;BME280;64378;55.596;13.014;2023-03-23T07:56:12;99777.88;;;20.91;42.57
75767;BME280;64378;55.596;13.014;2023-03-23T07:58:40;99781.13;;;20.93;42.62
75767;BME280;64378;55.596;13.014;2023-03-23T08:01:05;99772.06;;;20.92;42.71
75767;BME280;64378;55.596;13.014;2023-03-23T08:03:31;99774.25;;;20.95;42.52
75767;BME280;64378;55.596;13.014;2023-03-23T08:05:58;99766.53;;;20.97;42.63
75767;BME280;64378;55.596;13.014;2023-03-23T08:08:24;99747.88;;;20.99;42.39
75767;BME280;64378;55.596;13.014;2023-03-23T08:10:50;99746.16;;;21.03;42.39
75767;BME280;64378;55.596;13.014;2023-03-23T08:13:16;99744.22;;;21.04;42.36
75767;BME280;64378;55.596;13.014;2023-03-23T08:15:41;99746.38;;;21.07;42.22
75767;BME280;64378;55.596;13.014;2023-03-23T08:18:08;99757.88;;;21.09;42.23
75767;BME280;64378;55.596;13.014;2023-03-23T08:20:34;99765.00;;;21.10;41.90
75767;BME280;64378;55.596;13.014;2023-03-23T08:23:00;99769.97;;;21.08;41.94
75767;BME280;64378;55.596;13.014;2023-03-23T08:25:28;99769.16;;;21.07;41.85
75767;BME280;64378;55.596;13.014;2023-03-23T08:27:56;99776.28;;;21.08;41.61
75767;BME280;64378;55.596;13.014;2023-03-23T08:30:22;99779.03;;;21.08;41.65
75767;BME280;64378;55.596;13.014;2023-03-23T08:32:48;99771.06;;;21.07;41.64
75767;BME280;64378;55.596;13.014;2023-03-23T08:35:16;99794.66;;;21.08;41.55
75767;BME280;64378;55.596;13.014;2023-03-23T08:37:43;99780.13;;;21.07;41.43
75767;BME280;64378;55.596;13.014;2023-03-23T08:40:10;99766.69;;;21.06;41.47
75767;BME280;64378;55.596;13.014;2023-03-23T08:42:38;99752.97;;;21.06;41.39
75767;BME280;64378;55.596;13.014;2023-03-23T08:45:05;99756.84;;;21.05;41.32
75767;BME280;64378;55.596;13.014;2023-03-23T08:47:32;99765.06;;;21.05;41.37
75767;BME280;64378;55.596;13.014;2023-03-23T08:49:58;99773.28;;;21.05;41.38
75767;BME280;64378;55.596;13.014;2023-03-23T08:52:23;99775.22;;;21.04;41.07
75767;BME280;64378;55.596;13.014;2023-03-23T08:54:48;99768.91;;;21.04;41.05
75767;BME280;64378;55.596;13.014;2023-03-23T08:57:14;99770.03;;;21.03;41.16
75767;BME280;64378;55.596;13.014;2023-03-23T08:59:41;99775.50;;;21.03;41.20
75767;BME280;64378;55.596;13.014;2023-03-23T09:02:09;99768.41;;;21.02;41.05
75767;BME280;64378;55.596;13.014;2023-03-23T09:04:37;99762.94;;;21.02;41.16
75767;BME280;64378;55.596;13.014;2023-03-23T09:07:02;99774.19;;;21.00;41.09
75767;BME280;64378;55.596;13.014;2023-03-23T09:09:28;99778.03;;;20.99;41.10
75767;BME280;64378;55.596;13.014;2023-03-23T09:11:54;99764.31;;;20.99;41.31
75767;BME280;64378;55.596;13.014;2023-03-23T09:14:19;99754.19;;;21.00;41.11
75767;BME280;64378;55.596;13.014;2023-03-23T09:16:45;99767.06;;;20.99;41.35
75767;BME280;64378;55.596;13.014;2023-03-23T09:19:10;99782.72;;;20.99;41.18
75767;BME280;64378;55.596;13.014;2023-03-23T09:21:36;99784.63;;;20.98;41.21
75767;BME280;64378;55.596;13.014;2023-03-23T09:24:01;99780.25;;;20.97;41.14
75767;BME280;64378;55.596;13.014;2023-03-23T09:26:27;99779.44;;;20.97;41.16
75767;BME280;64378;55.596;13.014;2023-03-23T09:28:53;99769.28;;;20.97;40.99
75767;BME280;64378;55.596;13.014;2023-03-23T09:31:19;99769.28;;;20.97;41.05
75767;BME280;64378;55.596;13.014;2023-03-23T09:33:48;99752.28;;;20.95;41.02
75767;BME280;64378;55.596;13.014;2023-03-23T09:36:17;99759.41;;;20.96;41.10
75767;BME280;64378;55.596;13.014;2023-03-23T09:38:43;99787.94;;;20.95;41.22
75767;BME280;64378;55.596;13.014;2023-03-23T09:41:51;99777.81;;;20.96;41.03
75767;BME280;64378;55.596;13.014;2023-03-23T09:47:19;99769.84;;;20.94;41.12
75767;BME280;64378;55.596;13.014;2023-03-23T09:49:59;99756.16;;;20.94;41.41
75767;BME280;64378;55.596;13.014;2023-03-23T09:52:56;99768.22;;;20.93;41.24
75767;BME280;64378;55.596;13.014;2023-03-23T09:55:22;99752.59;;;20.94;40.91
75767;BME280;64378;55.596;13.014;2023-03-23T10:00:55;99748.50;;;20.91;41.33
75767;BME280;64378;55.596;13.014;2023-03-23T10:03:26;99738.06;;;20.93;40.88
75767;BME280;64378;55.596;13.014;2023-03-23T10:05:54;99752.59;;;20.94;41.05
75767;BME280;64378;55.596;13.014;2023-03-23T10:08:30;99740.53;;;20.95;41.23
75767;BME280;64378;55.596;13.014;2023-03-23T10:16:28;99739.94;;;20.98;41.07
75767;BME280;64378;55.596;13.014;2023-03-23T10:19:07;99732.81;;;20.97;41.09
75767;BME280;64378;55.596;13.014;2023-03-23T10:21:37;99741.56;;;20.99;41.11
75767;BME280;64378;55.596;13.014;2023-03-23T10:24:09;99735.25;;;20.98;41.01
75767;BME280;64378;55.596;13.014;2023-03-23T10:29:31;99741.00;;;21.02;40.90
75767;BME280;64378;55.596;13.014;2023-03-23T10:32:14;99736.31;;;21.02;40.90
75767;BME280;64378;55.596;13.014;2023-03-23T10:37:53;99726.66;;;21.05;41.05
75767;BME280;64378;55.596;13.014;2023-03-23T10:40:00;99720.06;;;21.06;41.15
75767;BME280;64378;55.596;13.014;2023-03-23T10:42:27;99718.38;;;21.10;41.12
75767;BME280;64378;55.596;13.014;2023-03-23T10:44:55;99710.44;;;21.08;41.25
75767;BME280;64378;55.596;13.014;2023-03-23T10:47:22;99712.59;;;21.11;41.21
75767;BME280;64378;55.596;13.014;2023-03-23T10:49:59;99726.53;;;21.15;41.01
75767;BME280;64378;55.596;13.014;2023-03-23T10:52:36;99710.88;;;21.15;40.95
75767;BME280;64378;55.596;13.014;2023-03-23T10:55:12;99699.63;;;21.17;40.98
75767;BME280;64378;55.596;13.014;2023-03-23T10:57:41;99703.19;;;21.17;41.14
75767;BME280;64378;55.596;13.014;2023-03-23T11:02:43;99696.00;;;21.21;41.01
75767;BME280;64378;55.596;13.014;2023-03-23T11:05:20;99692.97;;;21.23;40.94
75767;BME280;64378;55.596;13.014;2023-03-23T11:07:50;99696.22;;;21.25;40.70
75767;BME280;64378;55.596;13.014;2023-03-23T11:10:26;99685.25;;;21.25;41.03
75767;BME280;64378;55.596;13.014;2023-03-23T11:12:53;99693.19;;;21.26;41.05
75767;BME280;64378;55.596;13.014;2023-03-23T11:15:30;99694.81;;;21.27;41.03
75767;BME280;64378;55.596;13.014;2023-03-23T11:18:05;99703.03;;;21.27;40.99
75767;BME280;64378;55.596;13.014;2023-03-23T11:20:36;99703.88;;;21.28;41.08
75767;BME280;64378;55.596;13.014;2023-03-23T11:23:22;99708.22;;;21.29;40.85
75767;BME280;64378;55.596;13.014;2023-03-23T11:26:08;99718.91;;;21.30;40.92
75767;BME280;64378;55.596;13.014;2023-03-23T11:28:37;99719.44;;;21.32;40.99
75767;BME280;64378;55.596;13.014;2023-03-23T11:31:07;99721.66;;;21.30;40.99
75767;BME280;64378;55.596;13.014;2023-03-23T11:33:39;99726.03;;;21.31;41.04
75767;BME280;64378;55.596;13.014;2023-03-23T11:36:06;99733.16;;;21.32;41.21
75767;BME280;64378;55.596;13.014;2023-03-23T11:38:34;99734.28;;;21.31;40.86
75767;BME280;64378;55.596;13.014;2023-03-23T11:41:00;99737.00;;;21.31;40.96
75767;BME280;64378;55.596;13.014;2023-03-23T11:43:25;99738.66;;;21.32;40.92
75767;BME280;64378;55.596;13.014;2023-03-23T11:46:05;99743.03;;;21.33;40.85
75767;BME280;64378;55.596;13.014;2023-03-23T11:48:53;99743.03;;;21.33;41.04
75767;BME280;64378;55.596;13.014;2023-03-23T11:51:44;99740.28;;;21.33;40.86
75767;BME280;64378;55.596;13.014;2023-03-23T11:54:18;99743.81;;;21.34;40.56
75767;BME280;64378;55.596;13.014;2023-03-23T11:56:47;99747.41;;;21.34;40.80
75767;BME280;64378;55.596;13.014;2023-03-23T11:59:15;99751.78;;;21.35;40.57
75767;BME280;64378;55.596;13.014;2023-03-23T12:12:55;99746.50;;;21.39;40.40
75767;BME280;64378;55.596;13.014;2023-03-23T12:15:43;99750.88;;;21.40;40.52
75767;BME280;64378;55.596;13.014;2023-03-23T12:18:40;99750.09;;;21.39;40.44
75767;BME280;64378;55.596;13.014;2023-03-23T12:32:29;99776.41;;;21.40;40.20
75767;BME280;64378;55.596;13.014;2023-03-23T12:37:51;99795.31;;;21.42;39.81
75767;BME280;64378;55.596;13.014;2023-03-23T12:49:16;99778.84;;;21.42;39.95
75767;BME280;64378;55.596;13.014;2023-03-23T12:51:59;99779.66;;;21.42;39.86
75767;BME280;64378;55.596;13.014;2023-03-23T12:54:32;99785.13;;;21.42;39.68
75767;BME280;64378;55.596;13.014;2023-03-23T13:07:56;99789.50;;;21.43;39.34
75767;BME280;64378;55.596;13.014;2023-03-23T13:10:29;99782.91;;;21.44;39.59
75767;BME280;64378;55.596;13.014;2023-03-23T13:12:56;99782.91;;;21.44;39.63
75767;BME280;64378;55.596;13.014;2023-03-23T13:23:21;99799.91;;;21.46;39.77
75767;BME280;64378;55.596;13.014;2023-03-23T13:29:05;99798.78;;;21.47;39.54
75767;BME280;64378;55.596;13.014;2023-03-23T13:31:38;99807.88;;;21.48;39.86
75767;BME280;64378;55.596;13.014;2023-03-23T13:37:00;99811.41;;;21.48;39.21
75767;BME280;64378;55.596;13.014;2023-03-23T13:39:30;99809.78;;;21.47;39.50
75767;BME280;64378;55.596;13.014;2023-03-23T13:44:41;99821.28;;;21.49;39.32
75767;BME280;64378;55.596;13.014;2023-03-23T14:03:04;99841.59;;;21.48;39.02
75767;BME280;64378;55.596;13.014;2023-03-23T14:05:36;99843.25;;;21.49;39.14
75767;BME280;64378;55.596;13.014;2023-03-23T14:08:20;99845.97;;;21.49;38.91
75767;BME280;64378;55.596;13.014;2023-03-23T14:10:55;99860.53;;;21.50;39.16
75767;BME280;64378;55.596;13.014;2023-03-23T14:13:33;99864.09;;;21.50;38.99
75767;BME280;64378;55.596;13.014;2023-03-23T14:16:02;99869.56;;;21.50;39.07
75767;BME280;64378;55.596;13.014;2023-03-23T14:18:39;99873.44;;;21.49;39.29
75767;BME280;64378;55.596;13.014;2023-03-23T14:21:11;99885.25;;;21.50;39.16
75767;BME280;64378;55.596;13.014;2023-03-23T14:23:39;99880.56;;;21.50;38.88
75767;BME280;64378;55.596;13.014;2023-03-23T14:26:10;99884.41;;;21.49;38.97
75767;BME280;64378;55.596;13.014;2023-03-23T14:28:41;99890.72;;;21.50;38.88
75767;BME280;64378;55.596;13.014;2023-03-23T14:31:21;99897.03;;;21.50;39.18
75767;BME280;64378;55.596;13.014;2023-03-23T14:33:48;99895.38;;;21.49;38.97
75767;BME280;64378;55.596;13.014;2023-03-23T14:36:27;99895.13;;;21.51;38.89
75767;BME280;64378;55.596;13.014;2023-03-23T14:39:21;99899.50;;;21.52;38.95
75767;BME280;64378;55.596;13.014;2023-03-23T14:41:47;99902.81;;;21.49;38.99
75767;BME280;64378;55.596;13.014;2023-03-23T14:44:21;99901.72;;;21.50;39.12
75767;BME280;64378;55.596;13.014;2023-03-23T14:46:47;99900.34;;;21.47;38.95
75767;BME280;64378;55.596;13.014;2023-03-23T14:49:19;99903.63;;;21.49;38.91
75767;BME280;64378;55.596;13.014;2023-03-23T14:51:53;99904.47;;;21.50;38.54
75767;BME280;64378;55.596;13.014;2023-03-23T14:54:25;99906.09;;;21.51;38.81
75767;BME280;64378;55.596;13.014;2023-03-23T14:56:50;99904.47;;;21.50;38.93
75767;BME280;64378;55.596;13.014;2023-03-23T14:59:16;99902.50;;;21.50;38.71
75767;BME280;64378;55.596;13.014;2023-03-23T15:01:42;99905.25;;;21.50;38.83